TimeCDT,TemperatureF,Dew PointF,Humidity,Sea Level PressureIn,VisibilityMPH,Wind Direction,Wind SpeedMPH,Gust SpeedMPH,PrecipitationIn,Events,Conditions,WindDirDegrees,DateUTC
12:08 AM,64.0,54.1,70,-9999,-9999.0,East,10.4,-,N/A,,Unknown,90,2013-06-17 05:08:00
12:28 AM,64.0,54.1,70,-9999,-9999.0,East,10.4,-,N/A,,Unknown,80,2013-06-17 05:28:00
12:48 AM,64.0,55.0,73,-9999,-9999.0,East,8.1,-,N/A,,Unknown,80,2013-06-17 05:48:00
1:08 AM,63.0,57.0,81,-9999,-9999.0,North,1.2,-,N/A,,Unknown,360,2013-06-17 06:08:00
1:28 AM,63.0,56.1,78,-9999,-9999.0,NNE,1.2,-,N/A,,Unknown,20,2013-06-17 06:28:00
1:48 AM,63.0,56.1,78,-9999,-9999.0,North,1.2,-,N/A,,Unknown,350,2013-06-17 06:48:00
2:08 AM,62.1,56.1,81,-9999,-9999.0,West,3.5,-,N/A,,Unknown,280,2013-06-17 07:08:00
2:28 AM,62.1,56.1,81,-9999,-9999.0,West,1.2,-,N/A,,Unknown,270,2013-06-17 07:28:00
2:48 AM,61.0,56.1,84,-9999,-9999.0,WNW,2.3,-,N/A,,Unknown,300,2013-06-17 07:48:00
3:08 AM,61.0,54.1,78,-9999,-9999.0,NNW,4.6,-,N/A,,Unknown,330,2013-06-17 08:08:00
3:28 AM,62.1,55.0,78,-9999,-9999.0,North,4.6,-,N/A,,Unknown,350,2013-06-17 08:28:00
3:48 AM,61.0,55.0,81,-9999,-9999.0,NNE,3.5,-,N/A,,Unknown,20,2013-06-17 08:48:00
4:08 AM,61.0,55.0,81,-9999,-9999.0,NNE,4.6,-,N/A,,Unknown,20,2013-06-17 09:08:00
4:28 AM,60.1,55.0,83,-9999,-9999.0,NNE,3.5,-,N/A,,Unknown,30,2013-06-17 09:28:00
4:48 AM,60.1,55.0,83,-9999,-9999.0,NE,4.6,-,N/A,,Unknown,50,2013-06-17 09:48:00
5:08 AM,61.0,55.0,81,-9999,-9999.0,NE,4.6,-,N/A,,Unknown,50,2013-06-17 10:08:00
5:28 AM,61.0,56.1,84,-9999,-9999.0,NE,2.3,-,N/A,,Unknown,40,2013-06-17 10:28:00
5:48 AM,61.0,56.1,84,-9999,-9999.0,NE,3.5,-,N/A,,Unknown,50,2013-06-17 10:48:00
6:08 AM,61.0,55.0,81,-9999,-9999.0,ENE,5.8,-,N/A,,Unknown,60,2013-06-17 11:08:00
6:28 AM,61.0,54.1,78,-9999,-9999.0,ENE,5.8,-,N/A,,Unknown,70,2013-06-17 11:28:00
6:48 AM,61.0,55.0,81,-9999,-9999.0,ENE,5.8,-,N/A,,Unknown,70,2013-06-17 11:48:00
7:08 AM,62.1,56.1,81,-9999,-9999.0,East,2.3,-,N/A,,Unknown,90,2013-06-17 12:08:00
7:28 AM,62.1,57.0,84,-9999,-9999.0,Calm,Calm,-,N/A,,Unknown,0,2013-06-17 12:28:00
7:48 AM,63.0,57.0,81,-9999,-9999.0,North,2.3,-,N/A,,Unknown,360,2013-06-17 12:48:00
8:08 AM,64.0,57.0,78,-9999,-9999.0,NNE,3.5,-,N/A,,Unknown,30,2013-06-17 13:08:00
8:28 AM,64.9,57.0,75,-9999,-9999.0,NNE,3.5,-,N/A,,Unknown,20,2013-06-17 13:28:00
8:48 AM,64.9,56.1,73,-9999,-9999.0,NNW,4.6,-,N/A,,Unknown,330,2013-06-17 13:48:00
9:08 AM,64.9,57.0,75,-9999,-9999.0,NW,4.6,-,N/A,,Unknown,320,2013-06-17 14:08:00
9:28 AM,66.0,57.0,73,-9999,-9999.0,NNW,4.6,-,N/A,,Unknown,340,2013-06-17 14:28:00
9:48 AM,66.9,57.0,70,-9999,-9999.0,North,3.5,-,N/A,,Unknown,350,2013-06-17 14:48:00
10:08 AM,-9999,-9999,N/A,-9999,-9999.0,North,-9999.0,-,N/A,,Unknown,0,2013-06-17 15:08:00
10:28 AM,70.0,57.0,63,-9999,-9999.0,NE,4.6,-,N/A,,Unknown,40,2013-06-17 15:28:00
10:48 AM,72.0,58.1,62,-9999,-9999.0,ENE,1.2,-,N/A,,Unknown,70,2013-06-17 15:48:00
11:08 AM,73.0,58.1,59,-9999,-9999.0,NNE,3.5,-,N/A,,Unknown,20,2013-06-17 16:08:00
11:28 AM,75.0,57.0,53,-9999,-9999.0,East,4.6,-,N/A,,Unknown,90,2013-06-17 16:28:00
11:48 AM,77.0,57.0,50,-9999,-9999.0,ESE,2.3,-,N/A,,Unknown,110,2013-06-17 16:48:00
12:08 PM,78.1,56.1,47,-9999,-9999.0,NE,5.8,-,N/A,,Unknown,40,2013-06-17 17:08:00
12:28 PM,80.1,56.1,44,-9999,-9999.0,ENE,4.6,-,N/A,,Unknown,60,2013-06-17 17:28:00
12:48 PM,81.0,56.1,42,-9999,-9999.0,ENE,9.2,-,N/A,,Unknown,70,2013-06-17 17:48:00
1:08 PM,82.0,55.0,39,-9999,-9999.0,ENE,6.9,-,N/A,,Unknown,70,2013-06-17 18:08:00
1:28 PM,82.0,55.0,39,-9999,-9999.0,ENE,8.1,-,N/A,,Unknown,70,2013-06-17 18:28:00
1:48 PM,82.9,56.1,40,-9999,-9999.0,NE,6.9,-,N/A,,Unknown,50,2013-06-17 18:48:00
2:08 PM,82.9,56.1,40,-9999,-9999.0,NE,11.5,-,N/A,,Unknown,50,2013-06-17 19:08:00
2:28 PM,84.0,54.1,36,-9999,-9999.0,East,13.8,-,N/A,,Unknown,90,2013-06-17 19:28:00
2:48 PM,82.9,55.0,38,-9999,-9999.0,East,13.8,-,N/A,,Unknown,90,2013-06-17 19:48:00
3:08 PM,84.0,53.1,34,-9999,-9999.0,East,13.8,-,N/A,,Unknown,90,2013-06-17 20:08:00
3:28 PM,84.0,54.1,36,-9999,-9999.0,East,13.8,-,N/A,,Unknown,90,2013-06-17 20:28:00
3:48 PM,84.9,55.0,36,-9999,-9999.0,East,12.7,-,N/A,,Unknown,90,2013-06-17 20:48:00
4:08 PM,84.9,55.0,36,-9999,-9999.0,ESE,11.5,-,N/A,,Unknown,110,2013-06-17 21:08:00
4:28 PM,84.9,55.0,36,-9999,-9999.0,East,12.7,-,N/A,,Unknown,100,2013-06-17 21:28:00
4:48 PM,84.9,55.0,36,-9999,-9999.0,East,16.1,-,N/A,,Unknown,100,2013-06-17 21:48:00
5:08 PM,82.9,55.0,38,-9999,-9999.0,ESE,17.3,-,N/A,,Unknown,110,2013-06-17 22:08:00
5:28 PM,82.0,56.1,41,-9999,-9999.0,ESE,13.8,-,N/A,,Unknown,110,2013-06-17 22:28:00
5:48 PM,81.0,56.1,42,-9999,-9999.0,ESE,15.0,-,N/A,,Unknown,120,2013-06-17 22:48:00
6:08 PM,80.1,56.1,44,-9999,-9999.0,ESE,13.8,-,N/A,,Unknown,110,2013-06-17 23:08:00
6:28 PM,79.0,57.0,47,-9999,-9999.0,East,11.5,-,N/A,,Unknown,100,2013-06-17 23:28:00
6:48 PM,78.1,55.0,45,-9999,-9999.0,ESE,13.8,-,N/A,,Unknown,110,2013-06-17 23:48:00
7:08 PM,78.1,56.1,47,-9999,-9999.0,ESE,13.8,-,N/A,,Unknown,110,2013-06-18 00:08:00
7:28 PM,77.0,57.0,50,-9999,-9999.0,ESE,9.2,-,N/A,,Unknown,110,2013-06-18 00:28:00
7:48 PM,77.0,58.1,52,-9999,-9999.0,ESE,11.5,-,N/A,,Unknown,110,2013-06-18 00:48:00
8:08 PM,75.9,57.0,52,-9999,-9999.0,ESE,12.7,-,N/A,,Unknown,110,2013-06-18 01:08:00
8:28 PM,77.0,56.1,48,-9999,-9999.0,East,13.8,-,N/A,,Unknown,100,2013-06-18 01:28:00
8:48 PM,77.0,57.0,50,-9999,-9999.0,East,10.4,-,N/A,,Unknown,80,2013-06-18 01:48:00
9:08 PM,75.9,57.0,52,-9999,-9999.0,ENE,11.5,-,N/A,,Unknown,70,2013-06-18 02:08:00
9:28 PM,73.9,58.1,58,-9999,-9999.0,East,6.9,-,N/A,,Unknown,80,2013-06-18 02:28:00
9:48 PM,73.0,59.2,62,-9999,-9999.0,ENE,6.9,-,N/A,,Unknown,70,2013-06-18 02:48:00
10:08 PM,73.0,60.1,64,-9999,-9999.0,NE,5.8,-,N/A,,Unknown,50,2013-06-18 03:08:00
10:28 PM,73.0,60.1,64,-9999,-9999.0,NE,4.6,-,N/A,,Unknown,50,2013-06-18 03:28:00
10:48 PM,73.0,60.1,64,-9999,-9999.0,NE,4.6,-,N/A,,Unknown,50,2013-06-18 03:48:00
11:08 PM,72.0,55.0,55,-9999,-9999.0,NNW,15.0,-,N/A,,Unknown,340,2013-06-18 04:08:00
11:28 PM,68.0,53.1,59,-9999,-9999.0,North,10.4,-,N/A,,Unknown,350,2013-06-18 04:28:00
11:48 PM,64.9,55.0,70,-9999,-9999.0,North,8.1,-,N/A,,Unknown,350,2013-06-18 04:48:00